Flight Track Log - Related Links

Times and Time Zones

All times are in EDT time to prevent confusion due to time zone crossing. See the N618JB flight status page for this flight to view local times or setup timezone preferences in your user account.

Time Position Orientation Groundspeed Altitude Reporting Facility
EDT Latitude Longitude Course Direction KTS MPH feet Rate Location/Type
Sun 07:07:54 AM 42.3500 -71.0167 304° West 166 191 900  Level KA90
Sun 07:08:18 AM 42.3500 -71.0500 270° West 170 196 1,800 1,846 Climbing KA90
Sun 07:09:12 AM 42.3167 -71.1000 228° Southwest 235 270 3,300 2,786 Climbing KA90
Sun 07:10:00 AM 42.5683 -70.8195 308° West  Level FlightAware Approximate
Sun 07:10:38 AM 42.2853 -71.1969 246° West 223 257 8,300  Level Boston Center
Sun 07:11:00 AM 42.6329 -70.9325 308° West  Level FlightAware Approximate
Sun 07:11:39 AM 42.3586 -71.2489 332° Northwest 217 250 11,000  Level Boston Center
Sun 07:12:00 AM 42.6849 -71.0570 300° West  Level FlightAware Approximate
Sun 07:12:38 AM 42.4422 -71.2614 354° North 291 335 12,900  Level Boston Center
Sun 07:13:00 AM 42.7397 -71.1793 304° West  Level FlightAware Approximate
Sun 07:13:37 AM 42.5528 -71.2647 359° North 341 392 15,400  Level Boston Center
Sun 07:14:38 AM 42.6467 -71.2686 358° North 371 427 17,300 2,000 Climbing Boston Center
Sun 07:15:37 AM 42.7450 -71.3119 342° North 367 422 19,400 1,932 Climbing Boston Center
Sun 07:16:36 AM 42.7753 -71.4303 289° West 305 351 21,100 1,686 Climbing Boston Center
Sun 07:17:38 AM 42.7867 -71.5603 277° West 305 351 22,800 1,650 Climbing Boston Center
Sun 07:18:36 AM 42.8003 -71.6903 278° West 330 380 24,400 2,017 Climbing Boston Center
Sun 07:19:37 AM 42.8114 -71.8175 277° West 343 395 26,800 1,659 Climbing Boston Center
Sun 07:20:39 AM 42.8244 -71.9419 278° West 343 395 27,800 984 Climbing Boston Center
Sun 07:21:39 AM 42.8353 -72.0747 276° West 348 400 28,800 974 Climbing Boston Center
Sun 07:22:36 AM 42.8503 -72.2078 279° West 353 406 29,700 958 Climbing Boston Center
Sun 07:23:38 AM 42.8672 -72.3156 282° West 359 413 30,700 976 Climbing Boston Center
Sun 07:24:39 AM 42.8839 -72.4797 278° West 369 425 31,700 893 Climbing Boston Center
Sun 07:25:39 AM 42.8964 -72.6186 277° West 369 425 32,500 872 Climbing Boston Center
Sun 07:26:36 AM 42.9003 -72.7603 272° West 369 425 33,400 1,026 Climbing Boston Center
Sun 07:27:36 AM 42.9103 -72.8739 277° West 369 425 34,500 829 Climbing Boston Center
Sun 07:28:39 AM 42.9281 -73.0639 277° West 376 433 35,100 545 Climbing Boston Center
Sun 07:29:37 AM 42.9417 -73.2086 277° West 387 445 35,600 454 Climbing Boston Center
Sun 07:30:38 AM 42.9553 -73.3536 277° West 387 445 36,000 200 Climbing Boston Center
Sun 07:31:37 AM 42.9622 -73.5011 274° West 387 445 36,000  Level Boston Center
Sun 07:32:39 AM 42.9756 -73.6461 277° West 387 445 36,000 -49 Level Boston Center
Sun 07:33:39 AM 42.9883 -73.7911 277° West 387 445 35,900 -50 Descending Boston Center
Sun 07:34:38 AM 42.9992 -73.9333 276° West 387 445 35,900  Level Boston Center
Sun 07:35:38 AM 43.0097 -74.0783 276° West 387 445 35,900  Level Boston Center
Sun 07:36:39 AM 43.0222 -74.2208 277° West 387 445 35,900 51 Level Boston Center
Sun 07:37:36 AM 43.0344 -74.3631 277° West 387 445 36,000  Climbing Boston Center
Sun 07:38:38 AM 43.0444 -74.5028 276° West 387 445 35,900  Descending Boston Center
Sun 07:39:37 AM 43.0544 -74.6450 276° West 387 445 36,000 50 Climbing Boston Center
Sun 07:40:39 AM 43.0658 -74.7933 276° West 387 445 36,000  Level Boston Center
Sun 07:41:38 AM 43.0775 -74.9358 276° West 387 445 36,000  Level Boston Center
Sun 07:42:39 AM 43.0889 -75.0842 276° West 387 445 36,000  Level Boston Center
Sun 07:43:36 AM 43.0978 -75.2297 275° West 387 445 36,000  Level Boston Center
Sun 07:44:39 AM 43.1086 -75.3781 276° West 387 445 36,000  Level Boston Center
Sun 07:45:36 AM 43.1178 -75.5094 276° West 387 445 36,000  Level Boston Center
Sun 07:46:37 AM 43.1261 -75.6550 275° West 387 445 36,000 -50 Level Boston Center
Sun 07:47:36 AM 43.1353 -75.7722 276° West 387 445 35,900  Descending Boston Center
Sun 07:48:38 AM 43.1467 -75.9464 275° West 387 445 36,000 39 Climbing Boston Center
Sun 07:50:11 AM 43.1600 -76.1769 275° West 377 434 36,000  Level Cleveland Center
Sun 07:51:11 AM 43.1508 -76.3256 265° West 384 442 36,000  Level Cleveland Center
Sun 07:52:11 AM 43.1375 -76.4717 263° West 390 449 36,000  Level Cleveland Center
Sun 07:53:11 AM 43.1258 -76.6175 264° West 390 449 36,000  Level Cleveland Center
Sun 07:54:11 AM 43.1142 -76.7606 264° West 390 449 36,000  Level Cleveland Center
Sun 07:55:11 AM 43.1000 -76.9036 262° West 390 449 36,000  Level Cleveland Center
Sun 07:56:11 AM 43.0858 -77.0494 262° West 390 449 36,000  Level Cleveland Center
Sun 07:57:11 AM 43.0733 -77.1925 263° West 390 449 36,000  Level Cleveland Center
Sun 07:58:11 AM 43.0589 -77.3439 263° West 390 449 36,000  Level Cleveland Center
Sun 07:59:11 AM 43.0442 -77.4922 262° West 390 449 36,000  Level Cleveland Center
Sun 08:00:11 AM 43.0297 -77.6550 263° West 390 449 36,000  Level Cleveland Center
Sun 08:01:11 AM 43.0167 -77.8033 263° West 390 449 36,000  Level Cleveland Center
Sun 08:02:11 AM 42.9992 -77.9517 261° West 390 449 36,000  Level Cleveland Center
Sun 08:03:11 AM 42.9858 -78.0997 263° West 390 449 36,000  Level Cleveland Center
Sun 08:04:11 AM 42.9722 -78.2478 263° West 395 455 36,000  Level Cleveland Center
Sun 08:05:11 AM 42.9564 -78.3903 261° West 405 466 36,000  Level Cleveland Center
Sun 08:06:11 AM 42.9403 -78.5469 262° West 400 460 36,000  Level Cleveland Center
Sun 08:07:11 AM 42.9325 -78.7003 266° West 408 470 36,000  Level Cleveland Center
Sun 08:08:11 AM 42.9411 -78.8503 275° West 403 464 36,000  Level Cleveland Center
Sun 08:09:04 AM 42.9333 -78.9500 264° West 400 460 36,000  Level Toronto Center
Sun 08:10:04 AM 42.9500 -79.1167 278° West 400 460 36,000  Level Toronto Center
Sun 08:11:04 AM 42.9500 -79.2667 270° West 400 460 36,000  Level Toronto Center
Sun 08:12:04 AM 42.9667 -79.4000 280° West 400 460 36,000  Level Toronto Center
Sun 08:13:04 AM 42.9667 -79.5667 270° West 390 449 36,000  Level Toronto Center
Sun 08:14:04 AM 42.9667 -79.7167 270° West 390 449 36,000 -50 Level Toronto Center
Sun 08:15:04 AM 42.9833 -79.8667 279° West 390 449 35,900  Descending Toronto Center
Sun 08:16:04 AM 42.9833 -80.0000 270° West 380 437 36,000 50 Climbing Toronto Center
Sun 08:17:04 AM 43.0000 -80.1500 279° West 380 437 36,000  Level Toronto Center
Sun 08:18:04 AM 43.0000 -80.3000 270° West 390 449 36,000  Level Toronto Center
Sun 08:19:04 AM 43.0000 -80.4500 270° West 390 449 36,000  Level Toronto Center
Sun 08:20:04 AM 43.0167 -80.5833 280° West 390 449 36,000  Level Toronto Center
Sun 08:21:04 AM 43.0167 -80.7333 270° West 390 449 36,000  Level Toronto Center
Sun 08:22:04 AM 43.0167 -80.8833 270° West 390 449 36,000  Level Toronto Center
Sun 08:23:04 AM 43.0167 -81.0167 270° West 380 437 36,000  Level Toronto Center
Sun 08:24:04 AM 43.0167 -81.1667 270° West 390 449 36,000  Level Toronto Center
Sun 08:25:04 AM 43.0167 -81.3167 270° West 390 449 36,000  Level Toronto Center
Sun 08:26:04 AM 43.0167 -81.4500 270° West 390 449 36,000  Level Toronto Center
Sun 08:27:04 AM 43.0167 -81.6167 270° West 390 449 36,000 50 Level Toronto Center
Sun 08:28:04 AM 43.0167 -81.7500 270° West 390 449 36,100  Climbing Toronto Center
Sun 08:29:04 AM 43.0000 -81.9167 262° West 380 437 36,000 -50 Descending Toronto Center
Sun 08:30:04 AM 43.0000 -82.0500 270° West 380 437 36,000  Level Toronto Center
Sun 08:31:04 AM 43.0000 -82.2167 270° West 380 437 36,000  Level Toronto Center
Sun 08:32:04 AM 43.0000 -82.3500 270° West 380 437 36,000  Level Toronto Center
Sun 08:33:04 AM 43.0000 -82.4833 270° West 380 437 36,000  Level Toronto Center
Sun 08:34:04 AM 43.0000 -82.6167 270° West 380 437 36,000  Level Toronto Center
Sun 08:35:04 AM 42.9833 -82.7833 262° West 380 437 36,000  Level Toronto Center
Sun 08:36:04 AM 42.9833 -82.9167 270° West 380 437 36,000  Level Toronto Center
Sun 08:37:04 AM 42.9833 -83.0667 270° West 380 437 36,000  Level Toronto Center
Sun 08:38:04 AM 42.9667 -83.2167 261° West 370 426 36,000  Level Toronto Center
Sun 08:39:04 AM 42.9667 -83.3500 270° West 370 426 36,000  Level Toronto Center
Sun 08:40:04 AM 42.9667 -83.4833 270° West 370 426 36,000  Level Toronto Center
Sun 08:41:04 AM 42.9667 -83.6167 270° West 370 426 36,000  Level Toronto Center
Sun 08:42:04 AM 42.9333 -83.7833 255° West 380 437 36,000  Level Toronto Center
Sun 08:43:04 AM 42.9167 -83.9167 260° West 380 437 36,000  Level Toronto Center
Sun 08:44:04 AM 42.9000 -84.0500 260° West 390 449 36,000  Level Toronto Center
Sun 08:45:04 AM 42.8500 -84.1833 243° Southwest 380 437 36,000  Level Toronto Center
Sun 08:45:19 AM 42.8700 -84.2225 305° West 388 447 36,000  Level Chicago Center
Sun 08:46:20 AM 42.8428 -84.3597 255° West 385 443 36,000  Level Chicago Center
Sun 08:47:04 AM 42.8167 -84.4667 252° West 390 449 36,000  Level Toronto Center
Sun 08:47:21 AM 42.8133 -84.5017 263° West 388 447 36,000  Level Chicago Center
Sun 08:48:23 AM 42.7828 -84.6447 254° West 393 452 36,000  Level Chicago Center
Sun 08:49:24 AM 42.7528 -84.7872 254° West 392 451 36,000  Level Chicago Center
Sun 08:50:25 AM 42.7219 -84.9314 254° West 397 457 36,000  Level Chicago Center
Sun 08:51:26 AM 42.6914 -85.0764 254° West 398 458 36,000  Level Chicago Center
Sun 08:52:27 AM 42.6531 -85.2511 253° West 402 463 36,000  Level Chicago Center
Sun 08:53:29 AM 42.6217 -85.3972 254° West 402 463 36,000  Level Chicago Center
Sun 08:54:30 AM 42.5897 -85.5417 253° West 401 461 36,000  Level Chicago Center
Sun 08:55:31 AM 42.5583 -85.6869 254° West 399 459 36,000  Level Chicago Center
Sun 08:56:32 AM 42.5272 -85.8292 254° West 394 453 36,000  Level Chicago Center
Sun 08:57:33 AM 42.4944 -85.9733 253° West 397 457 36,000  Level Chicago Center
Sun 08:58:34 AM 42.4394 -86.1081 241° Southwest 405 466 36,000  Level Chicago Center
Sun 08:59:35 AM 42.3631 -86.2217 228° Southwest 409 471 36,000  Level Chicago Center
Sun 09:00:37 AM 42.2694 -86.3267 220° Southwest 412 474 36,000 49 Level Chicago Center
Sun 09:01:38 AM 42.1850 -86.4225 220° Southwest 403 464 36,100 344 Climbing Chicago Center
Sun 09:02:39 AM 42.1006 -86.5172 220° Southwest 399 459 36,700 683 Climbing Chicago Center
Sun 09:03:41 AM 42.0147 -86.6133 220° Southwest 401 461 37,500 634 Climbing Chicago Center
Sun 09:04:42 AM 41.9206 -86.7178 220° Southwest 397 457 38,000 246 Climbing Chicago Center
Sun 09:05:43 AM 41.8367 -86.8119 220° Southwest 393 452 38,000  Level Chicago Center
Sun 09:06:44 AM 41.7544 -86.9011 219° Southwest 383 441 38,000  Level Chicago Center
Sun 09:07:46 AM 41.6719 -86.9922 220° Southwest 383 441 38,000 49 Level Chicago Center
Sun 09:08:47 AM 41.5878 -87.0842 219° Southwest 390 449 38,100 49 Climbing Chicago Center
Sun 09:09:48 AM 41.5042 -87.1761 219° Southwest 390 449 38,100 -49 Level Chicago Center
Sun 09:10:50 AM 41.4228 -87.2661 220° Southwest 382 440 38,000 -49 Descending Chicago Center
Sun 09:11:51 AM 41.3242 -87.3719 219° Southwest 378 435 38,000  Level Chicago Center
Sun 09:12:53 AM 41.2431 -87.4611 220° Southwest 377 434 38,000  Level Chicago Center
Sun 09:13:54 AM 41.1597 -87.5494 219° Southwest 380 437 38,000  Level Chicago Center
Sun 09:14:56 AM 41.0789 -87.6378 219° Southwest 376 433 38,000  Level Chicago Center
Sun 09:15:57 AM 40.9983 -87.7239 219° Southwest 373 429 38,000  Level Chicago Center
Sun 09:16:58 AM 40.9175 -87.8100 219° Southwest 372 428 38,000 49 Level Chicago Center
Sun 09:18:00 AM 40.8369 -87.8978 220° Southwest 373 429 38,100  Climbing Chicago Center
Sun 09:19:01 AM 40.7583 -87.9792 218° Southwest 364 419 38,000 -537 Descending Chicago Center
Sun 09:20:03 AM 40.6808 -88.0617 219° Southwest 359 413 37,000 -2,927 Descending Chicago Center
Sun 09:21:04 AM 40.5864 -88.1614 219° Southwest 363 418 32,000 -3,512 Descending Chicago Center
Sun 09:22:06 AM 40.5042 -88.2728 226° Southwest 418 481 29,800 -976 Descending Chicago Center
Sun 09:23:07 AM 40.4269 -88.3822 227° Southwest 408 470 30,000 98 Climbing Chicago Center
Sun 09:24:09 AM 40.3489 -88.4908 227° Southwest 410 472 30,000  Level Chicago Center
Sun 09:25:10 AM 40.2622 -88.6075 226° Southwest 415 478 30,000  Level Chicago Center
Sun 09:26:12 AM 40.1825 -88.7172 226° Southwest 414 476 30,000  Level Chicago Center
Sun 09:27:14 AM 40.1017 -88.8289 227° Southwest 421 484 30,000  Level Chicago Center
Sun 09:28:15 AM 40.0219 -88.9383 226° Southwest 415 478 30,000  Level Chicago Center
Sun 09:29:17 AM 39.9397 -89.0497 226° Southwest 422 486 30,000  Level Chicago Center
Sun 09:30:09 AM 39.8731 -89.1389 226° Southwest 423 487 30,000  Level Kansas City Center
Sun 09:31:11 AM 39.7908 -89.2503 226° Southwest 425 489 30,000  Level Kansas City Center
Sun 09:32:09 AM 39.7086 -89.3611 226° Southwest 425 489 30,000  Level Kansas City Center
Sun 09:33:13 AM 39.6253 -89.4728 226° Southwest 426 490 30,000  Level Kansas City Center
Sun 09:34:12 AM 39.5439 -89.5836 226° Southwest 426 490 30,000  Level Kansas City Center
Sun 09:35:13 AM 39.4450 -89.7150 226° Southwest 426 490 30,000  Level Kansas City Center
Sun 09:36:15 AM 39.3622 -89.8233 225° Southwest 425 489 30,000  Level Kansas City Center
Sun 09:37:18 AM 39.2817 -89.9308 226° Southwest 420 483 30,000  Level Kansas City Center
Sun 09:38:19 AM 39.1997 -90.0386 226° Southwest 420 483 30,000  Level Kansas City Center
Sun 09:39:18 AM 39.1175 -90.1469 226° Southwest 423 487 30,000  Level Kansas City Center
Sun 09:40:22 AM 39.0358 -90.2550 226° Southwest 423 487 30,000  Level Kansas City Center
Sun 09:41:20 AM 38.9539 -90.3614 225° Southwest 423 487 30,000  Level Kansas City Center
Sun 09:42:22 AM 38.8611 -90.4850 226° Southwest 414 476 30,000  Level Kansas City Center
Sun 09:43:23 AM 38.7817 -90.5931 227° Southwest 414 476 30,000  Level Kansas City Center
Sun 09:44:26 AM 38.7075 -90.7075 230° Southwest 427 491 30,000  Level Kansas City Center
Sun 09:45:27 AM 38.6319 -90.8183 229° Southwest 423 487 30,000  Level Kansas City Center
Sun 09:46:27 AM 38.5558 -90.9286 229° Southwest 419 482 30,000  Level Kansas City Center
Sun 09:47:30 AM 38.4800 -91.0381 229° Southwest 415 478 30,000  Level Kansas City Center
Sun 09:48:31 AM 38.4031 -91.1486 228° Southwest 418 481 30,000  Level Kansas City Center
Sun 09:49:32 AM 38.3267 -91.2592 229° Southwest 418 481 30,000  Level Kansas City Center
Sun 09:50:33 AM 38.2339 -91.3900 228° Southwest 416 479 30,000  Level Kansas City Center
Sun 09:51:35 AM 38.1653 -91.4872 228° Southwest 417 480 30,000  Level Kansas City Center
Sun 09:52:36 AM 38.0892 -91.5983 229° Southwest 414 476 30,000  Level Kansas City Center
Sun 09:53:37 AM 37.9972 -91.7308 229° Southwest 414 476 30,000  Level Kansas City Center
Sun 09:54:39 AM 37.9156 -91.8433 227° Southwest 422 486 30,000  Level Kansas City Center
Sun 09:55:40 AM 37.8372 -91.9558 229° Southwest 421 484 30,000  Level Kansas City Center
Sun 09:56:41 AM 37.7569 -92.0672 228° Southwest 422 486 30,000  Level Kansas City Center
Sun 09:57:41 AM 37.6900 -92.1614 228° Southwest 423 487 30,000  Level Kansas City Center
Sun 09:58:45 AM 37.5983 -92.2914 228° Southwest 421 484 30,000  Level Kansas City Center
Sun 09:59:46 AM 37.5200 -92.4006 228° Southwest 419 482 30,000  Level Kansas City Center
Sun 10:00:47 AM 37.4403 -92.5094 227° Southwest 418 481 30,000  Level Kansas City Center
Sun 10:01:47 AM 37.3608 -92.6183 227° Southwest 420 483 30,000  Level Kansas City Center
Sun 10:02:51 AM 37.2811 -92.7286 228° Southwest 422 486 30,000  Level Kansas City Center
Sun 10:03:51 AM 37.2011 -92.8383 228° Southwest 424 488 30,000  Level Kansas City Center
Sun 10:04:53 AM 37.1208 -92.9478 227° Southwest 424 488 30,000  Level Kansas City Center
Sun 10:05:53 AM 37.0408 -93.0569 227° Southwest 424 488 30,000  Level Kansas City Center
Sun 10:06:55 AM 36.9589 -93.1656 227° Southwest 427 491 30,000  Level Kansas City Center
Sun 10:07:58 AM 36.8775 -93.2769 228° Southwest 431 496 30,000  Level Kansas City Center
Sun 10:08:59 AM 36.7947 -93.3897 228° Southwest 432 497 30,000  Level Kansas City Center
Sun 10:10:00 AM 36.6947 -93.4794 216° Southwest 442 509 30,000  Level Kansas City Center
Sun 10:10:56 AM 36.5886 -93.5589 211° Southwest 436 502 30,000  Level Memphis Center
Sun 10:11:56 AM 36.4825 -93.6347 210° Southwest 441 507 30,000  Level Memphis Center
Sun 10:12:56 AM 36.3742 -93.7103 209° Southwest 448 516 30,000  Level Memphis Center
Sun 10:13:56 AM 36.2719 -93.7883 212° Southwest 443 510 30,000  Level Memphis Center
Sun 10:14:56 AM 36.1658 -93.8611 209° Southwest 438 504 30,000  Level Memphis Center
Sun 10:15:56 AM 36.0614 -93.9336 209° Southwest 438 504 30,000  Level Memphis Center
Sun 10:16:56 AM 35.9550 -94.0111 211° Southwest 438 504 30,000  Level Memphis Center
Sun 10:17:56 AM 35.8525 -94.0886 212° Southwest 438 504 30,000  Level Memphis Center
Sun 10:18:56 AM 35.7483 -94.1631 210° Southwest 433 498 30,000  Level Memphis Center
Sun 10:19:56 AM 35.6289 -94.2419 208° Southwest 438 504 30,000  Level Memphis Center
Sun 10:20:56 AM 35.5267 -94.3161 211° Southwest 438 504 30,000  Level Memphis Center
Sun 10:21:56 AM 35.4325 -94.3856 211° Southwest 443 510 30,000  Level Memphis Center
Sun 10:22:56 AM 35.3153 -94.4664 209° Southwest 443 510 30,000  Level Memphis Center
Sun 10:23:56 AM 35.2106 -94.5403 210° Southwest 443 510 30,000  Level Memphis Center
Sun 10:25:39 AM 35.0322 -94.6700 211° Southwest 429 494 30,000  Level Fort Worth Center
Sun 10:26:39 AM 34.9361 -94.7617 218° Southwest 440 506 30,000  Level Fort Worth Center
Sun 10:27:39 AM 34.8483 -94.8606 223° Southwest 440 506 30,000  Level Fort Worth Center
Sun 10:28:39 AM 34.7606 -94.9567 222° Southwest 443 510 30,000  Level Fort Worth Center
Sun 10:29:39 AM 34.6706 -95.0503 221° Southwest 438 504 30,000  Level Fort Worth Center
Sun 10:30:39 AM 34.5786 -95.1461 221° Southwest 433 498 30,000  Level Fort Worth Center
Sun 10:31:39 AM 34.4925 -95.2392 222° Southwest 433 498 30,000  Level Fort Worth Center
Sun 10:32:39 AM 34.4025 -95.3369 222° Southwest 433 498 30,000  Level Fort Worth Center
Sun 10:33:39 AM 34.3122 -95.4297 220° Southwest 433 498 30,000 -250 Level Fort Worth Center
Sun 10:34:39 AM 34.2217 -95.5247 221° Southwest 433 498 29,500 -750 Descending Fort Worth Center
Sun 10:35:39 AM 34.1356 -95.6144 221° Southwest 421 484 28,500 -1,050 Descending Fort Worth Center
Sun 10:36:39 AM 34.0572 -95.6986 222° Southwest 415 478 27,400 -1,550 Descending Fort Worth Center
Sun 10:37:39 AM 33.9750 -95.7856 221° Southwest 397 457 25,400 -2,050 Descending Fort Worth Center
Sun 10:38:39 AM 33.8947 -95.8669 220° Southwest 387 445 23,300 -2,100 Descending Fort Worth Center
Sun 10:39:39 AM 33.8122 -95.9511 220° Southwest 387 445 21,200 -2,000 Descending Fort Worth Center
Sun 10:40:39 AM 33.7358 -96.0297 221° Southwest 382 440 19,300 -2,100 Descending Fort Worth Center
Sun 10:41:39 AM 33.6594 -96.1083 221° Southwest 377 434 17,000 -1,950 Descending Fort Worth Center
Sun 10:42:39 AM 33.5872 -96.1842 221° Southwest 356 410 15,400 -1,800 Descending Fort Worth Center
Sun 10:43:39 AM 33.5189 -96.2547 221° Southwest 341 392 13,400 -1,750 Descending Fort Worth Center
Sun 10:44:39 AM 33.4592 -96.3278 226° Southwest 324 373 11,900 -1,400 Descending Fort Worth Center
Sun 10:45:39 AM 33.4075 -96.4081 232° Southwest 307 353 10,600 -1,050 Descending Fort Worth Center
Sun 10:46:39 AM 33.3603 -96.4833 233° Southwest 296 341 9,800 -750 Descending Fort Worth Center
Sun 10:47:39 AM 33.3169 -96.5583 235° Southwest 291 335 9,100 -950 Descending Fort Worth Center
Sun 10:48:39 AM 33.2736 -96.6308 234° Southwest 281 323 7,900 -1,200 Descending Fort Worth Center
Sun 10:49:39 AM 33.2322 -96.7031 236° Southwest 276 318 6,700 -1,200 Descending Fort Worth Center
Sun 10:50:39 AM 33.1908 -96.7731 235° Southwest 266 306 5,500 -900 Descending Fort Worth Center
Sun 10:51:39 AM 33.1514 -96.8403 235° Southwest 266 306 4,900 -900 Descending Fort Worth Center
Sun 10:52:39 AM 33.1119 -96.9025 233° Southwest 271 312 3,700 -1,300 Descending Fort Worth Center
Sun 10:53:39 AM 33.0622 -96.9647 226° Southwest 250 288 2,300 -683 Descending Fort Worth Center
Sun 10:54:42 AM 33.0167 -97.0167 224° Southwest 188 216 2,300 -279 Level Dallas / Fort Worth TRACON
Sun 10:55:48 AM 32.9667 -97.0333 196° South 163 188 1,700 -650 Descending Dallas / Fort Worth TRACON
Sun 10:56:42 AM 32.9333 -97.0333 180° South 137 158 1,000 -778 Descending Dallas / Fort Worth TRACON
Sun 10:59:00 AM 32.8968 -97.0380 232° Southwest  Level Estimated
Sun 11:06:00 AM 32.8968 -97.0380 232° Southwest  Level Estimated

Login

Don't have an account? Register now (free) for customized features, flight alerts, and more!